createdAt,value
2023-07-25T00:02:03.827Z,60.75
2023-07-25T00:04:31.111Z,60.96
2023-07-25T00:06:57.988Z,60.42
2023-07-25T00:09:24.978Z,59.66
2023-07-25T00:11:51.882Z,60.28
2023-07-25T00:14:18.833Z,60.76
2023-07-25T00:16:45.879Z,61.75
2023-07-25T00:19:12.828Z,62.61
2023-07-25T00:21:40.016Z,62.48
2023-07-25T00:24:07.135Z,63.54
2023-07-25T00:26:34.083Z,64.67
2023-07-25T00:29:00.997Z,62.34
2023-07-25T00:31:27.926Z,62.79
2023-07-25T00:33:54.863Z,61.93
2023-07-25T00:36:21.818Z,61.55
2023-07-25T00:38:48.723Z,60.46
2023-07-25T00:41:15.612Z,60.63
2023-07-25T00:43:42.474Z,61.21
2023-07-25T00:46:09.508Z,60.56
2023-07-25T00:48:36.574Z,60.50
2023-07-25T00:51:04.715Z,60.84
2023-07-25T00:53:31.765Z,61.51
2023-07-25T00:55:58.752Z,61.90
2023-07-25T00:58:25.758Z,61.87
2023-07-25T01:00:52.643Z,62.04
2023-07-25T01:03:19.840Z,62.28
2023-07-25T01:05:48.260Z,61.94
2023-07-25T01:08:15.470Z,63.01
2023-07-25T01:10:42.449Z,63.22
2023-07-25T01:13:09.376Z,63.68
2023-07-25T01:15:37.221Z,63.55
2023-07-25T01:18:04.501Z,63.32
2023-07-25T01:20:31.896Z,64.07
2023-07-25T01:22:59.066Z,64.50
2023-07-25T01:25:26.341Z,63.21
2023-07-25T01:27:53.325Z,63.70
2023-07-25T01:30:20.390Z,63.95
2023-07-25T01:32:47.479Z,64.40
2023-07-25T01:35:14.491Z,64.44
2023-07-25T01:37:41.429Z,65.41
2023-07-25T01:40:09.167Z,65.72
2023-07-25T01:42:36.298Z,66.45
2023-07-25T01:45:03.711Z,66.02
2023-07-25T01:47:30.763Z,67.04
2023-07-25T01:49:57.728Z,66.85
2023-07-25T01:52:24.616Z,66.38
2023-07-25T01:54:53.253Z,65.96
2023-07-25T01:57:20.291Z,65.72
2023-07-25T01:59:47.423Z,65.74
2023-07-25T02:02:14.346Z,65.88
2023-07-25T02:04:41.343Z,66.45
2023-07-25T02:07:08.263Z,66.35
2023-07-25T02:09:35.318Z,65.83
2023-07-25T02:12:02.642Z,65.50
2023-07-25T02:14:45.425Z,65.88
2023-07-25T02:17:12.709Z,66.30
2023-07-25T02:19:39.622Z,66.76
2023-07-25T02:22:06.872Z,66.23
2023-07-25T02:24:34.388Z,66.39
2023-07-25T02:27:01.673Z,66.07
2023-07-25T02:29:28.713Z,66.24
2023-07-25T02:31:55.693Z,66.62
2023-07-25T02:34:22.690Z,65.07
2023-07-25T02:36:49.967Z,64.96
2023-07-25T02:39:16.966Z,65.16
2023-07-25T02:41:43.960Z,64.79
2023-07-25T02:44:10.899Z,65.30
2023-07-25T02:46:37.888Z,65.37
2023-07-25T02:49:04.832Z,66.30
2023-07-25T02:51:32.012Z,67.35
2023-07-25T02:53:59.130Z,66.60
2023-07-25T02:56:28.276Z,66.41
2023-07-25T02:58:55.212Z,67.15
2023-07-25T03:01:22.222Z,66.15
2023-07-25T03:03:49.197Z,66.40
2023-07-25T03:06:16.120Z,65.66
2023-07-25T03:08:43.025Z,66.10
2023-07-25T03:11:09.958Z,65.74
2023-07-25T03:13:36.936Z,65.20
2023-07-25T03:16:03.894Z,65.58
2023-07-25T03:18:30.936Z,65.06
2023-07-25T03:20:57.881Z,65.15
2023-07-25T03:23:24.888Z,65.26
2023-07-25T03:25:51.891Z,65.56
2023-07-25T03:28:18.933Z,66.36
2023-07-25T03:30:45.945Z,66.94
2023-07-25T03:33:12.954Z,66.47
2023-07-25T03:35:39.977Z,67.13
2023-07-25T03:38:06.877Z,66.50
2023-07-25T03:40:33.927Z,67.05
2023-07-25T03:43:00.819Z,67.72
2023-07-25T03:45:27.874Z,68.53
2023-07-25T03:47:54.876Z,67.68
2023-07-25T03:50:21.956Z,67.17
2023-07-25T03:52:48.823Z,67.21
2023-07-25T03:55:15.860Z,67.10
2023-07-25T03:57:42.746Z,66.95
2023-07-25T04:00:09.969Z,66.94
2023-07-25T04:02:37.036Z,66.23
2023-07-25T04:05:04.289Z,66.12
2023-07-25T04:07:31.358Z,65.84
2023-07-25T04:09:58.309Z,65.80
2023-07-25T04:12:25.240Z,65.26
2023-07-25T04:14:52.333Z,64.20
2023-07-25T04:17:19.287Z,64.51
2023-07-25T04:19:46.399Z,63.72
2023-07-25T04:22:13.312Z,63.64
2023-07-25T04:24:40.367Z,63.84
2023-07-25T04:27:07.422Z,63.34
2023-07-25T04:29:34.348Z,63.06
2023-07-25T04:32:01.336Z,63.15
2023-07-25T04:34:28.344Z,63.27
2023-07-25T04:36:56.012Z,63.71
2023-07-25T04:39:22.922Z,63.25
2023-07-25T04:41:49.819Z,63.49
2023-07-25T04:44:16.767Z,63.56
2023-07-25T04:46:44.068Z,62.89
2023-07-25T04:49:12.630Z,63.91
2023-07-25T04:51:40.696Z,63.71
2023-07-25T04:54:09.123Z,63.32
2023-07-25T04:56:36.104Z,63.53
2023-07-25T04:59:03.015Z,64.28
2023-07-25T05:01:30.334Z,64.32
2023-07-25T05:03:57.747Z,64.46
2023-07-25T05:06:24.845Z,64.51
2023-07-25T05:08:51.859Z,64.37
2023-07-25T05:11:18.935Z,63.98
2023-07-25T05:13:45.957Z,63.84
2023-07-25T05:16:12.929Z,63.52
2023-07-25T05:18:39.890Z,64.35
2023-07-25T05:21:06.790Z,64.46
2023-07-25T05:23:33.758Z,64.22
2023-07-25T05:26:00.693Z,64.37
2023-07-25T05:28:27.606Z,64.77
2023-07-25T05:30:54.513Z,63.81
2023-07-25T05:33:21.470Z,64.83
2023-07-25T05:35:48.490Z,63.62
2023-07-25T05:38:15.581Z,63.84
2023-07-25T05:40:42.594Z,64.13
2023-07-25T05:43:09.669Z,63.54
2023-07-25T05:45:36.737Z,61.64
2023-07-25T05:48:04.046Z,62.07
2023-07-25T05:50:31.265Z,62.09
2023-07-25T05:52:58.154Z,61.94
2023-07-25T05:55:25.192Z,60.91
2023-07-25T05:57:52.195Z,60.65
2023-07-25T06:00:22.269Z,61.33
2023-07-25T06:02:49.979Z,59.80
2023-07-25T06:05:17.048Z,60.60
2023-07-25T06:07:43.970Z,59.70
2023-07-25T06:10:11.052Z,58.59
2023-07-25T06:12:38.016Z,58.85
2023-07-25T06:15:05.803Z,55.84
2023-07-25T06:17:32.829Z,54.36
2023-07-25T06:19:59.806Z,55.54
2023-07-25T06:22:26.804Z,54.10
2023-07-25T06:24:53.716Z,54.97
2023-07-25T06:27:20.767Z,50.74
2023-07-25T06:29:47.788Z,51.35
2023-07-25T06:32:14.889Z,50.50
2023-07-25T06:34:41.937Z,49.76
2023-07-25T06:37:09.015Z,51.83
2023-07-25T06:39:35.984Z,51.21
2023-07-25T06:42:03.066Z,50.19
2023-07-25T06:44:30.116Z,51.19
2023-07-25T06:46:57.148Z,51.49
2023-07-25T06:49:24.111Z,49.65
2023-07-25T06:51:51.108Z,48.91
2023-07-25T06:54:18.116Z,49.23
2023-07-25T06:56:45.081Z,49.05
2023-07-25T06:59:12.037Z,48.56
2023-07-25T07:01:39.024Z,48.22
2023-07-25T07:04:06.050Z,47.93
2023-07-25T07:06:33.057Z,47.55
2023-07-25T07:09:00.090Z,47.52
2023-07-25T07:11:27.064Z,48.02
2023-07-25T07:13:54.042Z,47.55
2023-07-25T07:16:21.230Z,46.92
2023-07-25T07:18:48.504Z,46.18
2023-07-25T07:21:15.420Z,45.95
2023-07-25T07:23:42.351Z,45.63
2023-07-25T07:26:10.009Z,46.46
2023-07-25T07:28:37.042Z,46.14
2023-07-25T07:31:04.110Z,45.36
2023-07-25T07:33:31.261Z,44.90
2023-07-25T07:35:58.345Z,45.12
2023-07-25T07:38:25.285Z,45.32
2023-07-25T07:40:52.237Z,44.46
2023-07-25T07:43:19.824Z,43.98
2023-07-25T07:45:47.137Z,43.85
2023-07-25T07:48:14.102Z,44.38
2023-07-25T07:50:41.037Z,43.30
2023-07-25T07:53:07.964Z,42.85
2023-07-25T07:55:34.895Z,43.17
2023-07-25T07:58:01.859Z,42.89
2023-07-25T08:00:28.942Z,41.81
2023-07-25T08:02:56.041Z,41.24
2023-07-25T08:05:23.059Z,42.06
2023-07-25T08:07:50.487Z,41.75
2023-07-25T08:10:17.475Z,42.32
2023-07-25T08:12:44.411Z,40.62
2023-07-25T08:15:12.082Z,40.04
2023-07-25T08:17:39.225Z,39.51
2023-07-25T08:20:07.199Z,40.40
2023-07-25T08:22:34.359Z,40.29
2023-07-25T08:25:01.547Z,40.10
2023-07-25T08:27:28.598Z,39.39
2023-07-25T08:29:55.706Z,39.99
2023-07-25T08:32:22.717Z,39.37
2023-07-25T08:34:50.009Z,39.79
2023-07-25T08:37:16.942Z,39.62
2023-07-25T08:39:43.948Z,39.95
2023-07-25T08:42:10.925Z,39.29
2023-07-25T08:44:37.923Z,37.93
2023-07-25T08:47:07.792Z,38.56
2023-07-25T08:49:36.385Z,39.22
2023-07-25T08:52:04.464Z,38.20
2023-07-25T08:54:32.471Z,37.92
2023-07-25T08:56:59.662Z,37.36
2023-07-25T08:59:26.927Z,37.42
2023-07-25T09:01:54.196Z,38.16
2023-07-25T09:04:21.899Z,37.15
2023-07-25T09:06:49.025Z,38.17
2023-07-25T09:09:15.982Z,37.36
2023-07-25T09:11:43.089Z,36.69
2023-07-25T09:14:10.125Z,35.87
2023-07-25T09:16:37.640Z,36.84
2023-07-25T09:19:04.704Z,35.61
2023-07-25T09:21:32.026Z,35.62
2023-07-25T09:24:00.140Z,36.11
2023-07-25T09:26:30.480Z,35.69
2023-07-25T09:29:01.709Z,35.21
2023-07-25T09:31:29.653Z,35.16
2023-07-25T09:33:57.181Z,35.65
2023-07-25T09:36:24.197Z,35.31
2023-07-25T09:38:51.754Z,35.77
2023-07-25T09:41:19.541Z,36.07
2023-07-25T09:43:46.580Z,33.90
2023-07-25T09:46:13.651Z,32.59
2023-07-25T09:48:44.807Z,32.21
2023-07-25T09:51:15.162Z,32.19
2023-07-25T09:53:45.910Z,30.83
2023-07-25T09:56:12.818Z,30.76
2023-07-25T09:58:50.739Z,29.84
2023-07-25T10:01:26.946Z,30.62
2023-07-25T10:03:54.305Z,29.34
2023-07-25T10:06:21.498Z,29.54
2023-07-25T10:08:48.479Z,29.78
2023-07-25T10:11:15.451Z,29.50
2023-07-25T10:13:42.751Z,28.90
2023-07-25T10:16:11.748Z,28.63
2023-07-25T10:18:38.944Z,28.17
2023-07-25T10:21:05.972Z,27.94
2023-07-25T10:23:35.757Z,28.47
2023-07-25T10:26:12.972Z,28.19
2023-07-25T10:28:40.102Z,27.49
2023-07-25T10:31:08.943Z,28.44
2023-07-25T10:33:39.771Z,27.85
2023-07-25T10:36:09.634Z,28.21
2023-07-25T10:38:38.087Z,29.09
2023-07-25T10:41:15.258Z,30.14
2023-07-25T10:43:53.739Z,29.37
2023-07-25T10:46:22.126Z,28.93
2023-07-25T10:48:50.186Z,28.96
2023-07-25T10:51:18.960Z,30.10
2023-07-25T10:54:11.666Z,29.93
2023-07-25T10:56:39.153Z,28.84
2023-07-25T10:59:06.263Z,28.97
2023-07-25T11:01:34.289Z,28.75
2023-07-25T11:04:30.519Z,28.65
2023-07-25T11:06:58.399Z,28.55
2023-07-25T11:09:26.098Z,28.22
2023-07-25T11:11:54.561Z,28.24
2023-07-25T11:14:22.085Z,30.18
2023-07-25T11:16:52.964Z,30.84
2023-07-25T11:19:22.900Z,29.78
2023-07-25T11:21:49.811Z,29.83
2023-07-25T11:24:16.874Z,29.98
2023-07-25T11:26:44.560Z,29.68
2023-07-25T11:29:13.941Z,29.72
2023-07-25T11:31:48.230Z,29.48
2023-07-25T11:34:16.978Z,29.16
2023-07-25T11:36:44.059Z,30.35
2023-07-25T11:39:11.803Z,30.10
2023-07-25T11:41:39.281Z,30.87
2023-07-25T11:44:10.403Z,30.69
2023-07-25T11:46:42.008Z,30.48
2023-07-25T11:49:09.268Z,29.67
2023-07-25T11:51:36.287Z,31.35
2023-07-25T11:54:05.068Z,32.04
2023-07-25T11:56:33.433Z,31.78
2023-07-25T11:59:00.989Z,30.88
2023-07-25T12:01:29.868Z,30.42
2023-07-25T12:03:57.309Z,29.53
2023-07-25T12:06:29.027Z,29.38
2023-07-25T12:08:56.268Z,29.13
2023-07-25T12:11:23.612Z,28.99
2023-07-25T12:13:52.492Z,28.46
2023-07-25T12:16:33.244Z,28.37
2023-07-25T12:19:01.844Z,29.02
2023-07-25T12:21:30.050Z,28.40
2023-07-25T12:24:03.465Z,27.78
2023-07-25T12:26:39.821Z,28.50
2023-07-25T12:29:27.882Z,27.88
2023-07-25T12:31:55.109Z,27.46
2023-07-25T12:34:22.183Z,27.02
2023-07-25T12:36:49.864Z,27.20
2023-07-25T12:39:16.967Z,27.13
2023-07-25T12:41:44.907Z,27.07
2023-07-25T12:44:12.006Z,26.69
2023-07-25T12:46:40.418Z,27.73
2023-07-25T12:49:08.250Z,26.90
2023-07-25T12:51:36.152Z,27.69
2023-07-25T12:54:03.346Z,27.96
2023-07-25T12:56:30.847Z,27.87
2023-07-25T12:58:58.076Z,27.98
2023-07-25T13:01:25.390Z,29.03
2023-07-25T13:03:52.695Z,27.99
2023-07-25T13:06:19.858Z,27.51
2023-07-25T13:08:46.835Z,28.00
2023-07-25T13:11:13.937Z,27.86
2023-07-25T13:13:40.830Z,28.47
2023-07-25T13:16:08.004Z,28.59
2023-07-25T13:18:35.102Z,29.05
2023-07-25T13:21:02.408Z,28.78
2023-07-25T13:23:29.649Z,27.92
2023-07-25T13:25:56.635Z,28.51
2023-07-25T13:28:24.830Z,28.03
2023-07-25T13:30:52.522Z,28.30
2023-07-25T13:33:19.578Z,27.78
2023-07-25T13:35:46.810Z,27.02
2023-07-25T13:38:13.769Z,27.41
2023-07-25T13:40:40.684Z,28.51
2023-07-25T13:43:07.777Z,28.57
2023-07-25T13:45:49.815Z,28.61
2023-07-25T13:48:18.495Z,28.97
2023-07-25T13:50:53.581Z,28.88
2023-07-25T13:53:22.438Z,28.08
2023-07-25T13:55:49.402Z,28.74
2023-07-25T14:00:46.544Z,28.51
2023-07-25T14:03:14.014Z,29.65
2023-07-25T14:05:40.916Z,29.65
2023-07-25T14:08:08.948Z,29.53
2023-07-25T14:10:37.286Z,29.78
2023-07-25T14:13:04.540Z,29.95
2023-07-25T14:15:32.053Z,30.99
2023-07-25T14:17:59.341Z,31.33
2023-07-25T14:20:26.434Z,30.82
2023-07-25T14:22:53.408Z,30.51
2023-07-25T14:25:20.427Z,31.00
2023-07-25T14:27:48.430Z,31.53
2023-07-25T14:30:15.743Z,31.47
2023-07-25T14:32:42.859Z,30.75
2023-07-25T14:35:09.917Z,31.23
2023-07-25T14:37:52.857Z,31.20
2023-07-25T14:40:21.818Z,31.19
2023-07-25T14:42:48.844Z,30.93
2023-07-25T14:45:16.081Z,31.05
2023-07-25T14:47:43.760Z,30.67
2023-07-25T14:50:11.357Z,31.09
2023-07-25T14:52:38.419Z,32.41
2023-07-25T14:55:07.220Z,33.50
2023-07-25T14:57:34.382Z,34.23
2023-07-25T15:00:01.424Z,34.36
2023-07-25T15:02:28.595Z,33.21
2023-07-25T15:04:55.684Z,32.54
2023-07-25T15:07:22.766Z,32.08
2023-07-25T15:09:49.702Z,32.67
2023-07-25T15:12:16.736Z,32.46
2023-07-25T15:14:43.776Z,31.91
2023-07-25T15:17:18.609Z,32.56
2023-07-25T15:19:45.672Z,32.88
2023-07-25T15:22:12.669Z,33.04
2023-07-25T15:24:39.855Z,33.48
2023-07-25T15:27:07.288Z,33.18
2023-07-25T15:29:34.373Z,33.56
2023-07-25T15:32:02.902Z,33.56
2023-07-25T15:34:30.052Z,33.40
2023-07-25T15:36:56.985Z,34.18
2023-07-25T15:39:23.997Z,34.85
2023-07-25T15:41:51.607Z,35.05
2023-07-25T15:44:18.495Z,35.28
2023-07-25T15:46:45.674Z,35.49
2023-07-25T15:49:12.737Z,35.72
2023-07-25T15:51:39.755Z,35.85
2023-07-25T15:54:06.743Z,36.17
2023-07-25T15:56:34.114Z,36.57
2023-07-25T15:59:01.254Z,36.72
2023-07-25T16:01:28.134Z,36.63
2023-07-25T16:03:55.252Z,37.99
2023-07-25T16:06:22.267Z,36.88
2023-07-25T16:08:49.352Z,37.24
2023-07-25T16:11:16.383Z,37.24
2023-07-25T16:13:43.394Z,37.43
2023-07-25T16:16:11.590Z,37.23
2023-07-25T16:18:39.163Z,37.70
2023-07-25T16:21:06.338Z,38.06
2023-07-25T16:23:33.632Z,38.57
2023-07-25T16:26:03.234Z,38.11
2023-07-25T16:28:31.695Z,38.31
2023-07-25T16:31:16.744Z,38.27
2023-07-25T16:33:45.906Z,38.77
2023-07-25T16:36:13.156Z,38.79
2023-07-25T16:38:40.507Z,39.17
2023-07-25T16:41:07.511Z,38.95
2023-07-25T16:43:34.786Z,38.69
2023-07-25T16:46:01.989Z,39.24
2023-07-25T16:48:29.118Z,39.18
2023-07-25T16:50:56.030Z,39.39
2023-07-25T16:53:23.034Z,39.82
2023-07-25T16:55:50.017Z,39.68
2023-07-25T16:58:17.043Z,39.91
2023-07-25T17:00:44.051Z,40.16
2023-07-25T17:03:11.791Z,40.55
2023-07-25T17:05:38.938Z,40.83
2023-07-25T17:08:05.886Z,40.63
2023-07-25T17:10:32.953Z,40.79
2023-07-25T17:13:00.073Z,40.82
2023-07-25T17:15:27.134Z,41.11
2023-07-25T17:17:54.179Z,41.09
2023-07-25T17:20:25.854Z,41.28
2023-07-25T17:22:53.294Z,41.69
2023-07-25T17:25:20.620Z,41.69
2023-07-25T17:27:47.834Z,41.97
2023-07-25T17:30:16.354Z,41.65
2023-07-25T17:32:43.668Z,41.77
2023-07-25T17:35:15.211Z,42.17
2023-07-25T17:37:47.778Z,41.66
2023-07-25T17:40:14.849Z,41.81
2023-07-25T17:42:42.473Z,41.98
2023-07-25T17:45:09.985Z,41.94
2023-07-25T17:47:37.977Z,42.17
2023-07-25T17:50:05.613Z,42.06
2023-07-25T17:52:32.761Z,42.23
2023-07-25T17:54:59.893Z,42.11
2023-07-25T17:57:26.898Z,42.53
2023-07-25T17:59:54.341Z,42.35
2023-07-25T18:02:23.356Z,42.42
2023-07-25T18:04:51.588Z,42.44
2023-07-25T18:07:19.557Z,42.28
2023-07-25T18:09:46.527Z,42.35
2023-07-25T18:12:13.649Z,42.46
2023-07-25T18:14:40.592Z,42.48
2023-07-25T18:17:07.692Z,42.57
2023-07-25T18:19:34.753Z,42.57
2023-07-25T18:22:01.928Z,42.97
2023-07-25T18:24:29.223Z,42.63
2023-07-25T18:26:56.551Z,42.92
2023-07-25T18:29:23.722Z,42.87
2023-07-25T18:31:50.682Z,42.96
2023-07-25T18:34:18.056Z,43.14
2023-07-25T18:36:45.134Z,43.29
2023-07-25T18:39:14.966Z,43.36
2023-07-25T18:41:42.014Z,43.46
2023-07-25T18:44:09.096Z,43.66
2023-07-25T18:46:36.481Z,43.77
2023-07-25T18:49:03.603Z,43.92
2023-07-25T18:51:30.643Z,44.33
2023-07-25T18:53:57.691Z,44.33
2023-07-25T18:56:24.647Z,44.34
2023-07-25T18:58:51.654Z,44.52
2023-07-25T19:01:18.739Z,44.87
2023-07-25T19:03:45.722Z,45.05
2023-07-25T19:06:12.670Z,45.44
2023-07-25T19:08:39.769Z,45.64
2023-07-25T19:11:06.814Z,45.83
2023-07-25T19:13:34.131Z,45.70
2023-07-25T19:16:01.138Z,46.09
2023-07-25T19:18:28.092Z,46.42
2023-07-25T19:20:55.131Z,46.48
2023-07-25T19:23:26.603Z,46.72
2023-07-25T19:26:01.078Z,46.70
2023-07-25T19:28:28.930Z,46.87
2023-07-25T19:30:56.319Z,47.27
2023-07-25T19:33:23.401Z,46.84
2023-07-25T19:35:57.526Z,47.43
2023-07-25T19:38:24.797Z,47.30
2023-07-25T19:40:52.095Z,47.19
2023-07-25T19:43:19.134Z,47.04
2023-07-25T19:45:46.268Z,47.22
2023-07-25T19:48:14.966Z,47.13
2023-07-25T19:50:46.312Z,47.16
2023-07-25T19:53:14.281Z,47.32
2023-07-25T19:55:41.272Z,46.95
2023-07-25T19:58:08.360Z,47.13
2023-07-25T20:00:36.283Z,47.46
2023-07-25T20:03:03.518Z,47.23
2023-07-25T20:05:30.659Z,47.10
2023-07-25T20:07:57.558Z,47.06
2023-07-25T20:10:24.528Z,47.02
2023-07-25T20:12:51.750Z,47.26
2023-07-25T20:15:20.040Z,47.10
2023-07-25T20:17:48.294Z,47.03
2023-07-25T20:20:15.629Z,47.06
2023-07-25T20:22:42.679Z,46.89
2023-07-25T20:25:11.431Z,46.83
2023-07-25T20:27:39.144Z,47.23
2023-07-25T20:30:06.827Z,47.25
2023-07-25T20:32:34.121Z,47.39
2023-07-25T20:35:01.140Z,47.25
2023-07-25T20:37:29.059Z,47.40
2023-07-25T20:39:56.564Z,47.38
2023-07-25T20:42:23.660Z,47.47
2023-07-25T20:44:50.811Z,47.84
2023-07-25T20:47:17.923Z,47.91
2023-07-25T20:49:45.963Z,48.27
2023-07-25T20:52:12.961Z,48.37
2023-07-25T20:54:39.916Z,48.72
2023-07-25T20:57:07.001Z,49.02
2023-07-25T20:59:33.971Z,49.05
2023-07-25T21:02:01.041Z,49.05
2023-07-25T21:04:29.007Z,49.15
2023-07-25T21:06:56.692Z,49.18
2023-07-25T21:09:23.936Z,49.89
2023-07-25T21:11:51.139Z,49.38
2023-07-25T21:14:18.072Z,49.50
2023-07-25T21:16:45.410Z,49.46
2023-07-25T21:19:12.519Z,49.61
2023-07-25T21:21:39.507Z,49.85
2023-07-25T21:24:06.628Z,49.70
2023-07-25T21:26:33.866Z,50.37
2023-07-25T21:29:01.119Z,50.73
2023-07-25T21:31:28.171Z,50.81
2023-07-25T21:33:58.187Z,51.33
2023-07-25T21:36:25.828Z,51.68
2023-07-25T21:38:54.821Z,52.23
2023-07-25T21:41:23.263Z,52.61
2023-07-25T21:43:50.280Z,53.36
2023-07-25T21:46:17.341Z,53.79
2023-07-25T21:48:44.391Z,54.99
2023-07-25T21:51:11.510Z,55.63
2023-07-25T21:53:38.692Z,56.48
2023-07-25T21:56:05.619Z,57.44
2023-07-25T21:58:32.586Z,58.57
2023-07-25T22:00:59.624Z,59.11
2023-07-25T22:03:29.942Z,59.90
2023-07-25T22:05:57.860Z,60.78
2023-07-25T22:08:24.975Z,61.55
2023-07-25T22:10:53.440Z,61.90
2023-07-25T22:13:20.384Z,62.67
2023-07-25T22:15:47.509Z,63.21
2023-07-25T22:18:14.501Z,63.17
2023-07-25T22:20:50.590Z,63.47
2023-07-25T22:23:19.147Z,63.18
2023-07-25T22:25:46.126Z,63.27
2023-07-25T22:28:13.236Z,63.05
2023-07-25T22:30:40.304Z,62.59
2023-07-25T22:33:07.212Z,62.41
2023-07-25T22:35:35.060Z,62.14
2023-07-25T22:38:02.190Z,62.82
2023-07-25T22:40:29.337Z,63.23
2023-07-25T22:42:56.248Z,62.39
2023-07-25T22:45:23.450Z,62.40
2023-07-25T22:47:50.419Z,62.84
2023-07-25T22:50:17.449Z,64.47
2023-07-25T22:52:45.820Z,62.88
2023-07-25T22:55:14.173Z,63.32
2023-07-25T22:57:41.362Z,65.08
2023-07-25T23:00:08.880Z,67.29
2023-07-25T23:02:36.058Z,69.22
2023-07-25T23:05:04.153Z,74.81
2023-07-25T23:07:31.125Z,76.97
2023-07-25T23:09:58.174Z,82.01
2023-07-25T23:12:25.277Z,82.74
2023-07-25T23:14:52.354Z,84.04
2023-07-25T23:17:19.469Z,85.54
2023-07-25T23:19:46.482Z,85.24
2023-07-25T23:22:13.481Z,85.30
2023-07-25T23:24:40.677Z,84.57
2023-07-25T23:27:08.031Z,85.22
2023-07-25T23:29:36.813Z,84.82
2023-07-25T23:32:04.166Z,84.51
2023-07-25T23:34:43.680Z,83.68
2023-07-25T23:37:10.610Z,83.86
2023-07-25T23:39:37.997Z,84.31
2023-07-25T23:42:05.228Z,84.07
2023-07-25T23:44:32.313Z,83.70
2023-07-25T23:46:59.395Z,84.23
2023-07-25T23:49:26.469Z,85.24
2023-07-25T23:51:53.663Z,85.02
2023-07-25T23:54:20.587Z,85.31
2023-07-25T23:56:47.563Z,84.89
2023-07-25T23:59:14.566Z,84.91
